Flight Track Log - Related Links

Times and Time Zones

All times are in EDT time to prevent confusion due to time zone crossing. See the USC105 flight status page for this flight to view local times or setup timezone preferences in your user account.

Time Position Orientation Groundspeed Altitude Reporting Facility
EDT Latitude Longitude Course Direction KTS MPH feet Rate Location/Type
Mon 10:04:30 PM 39.8219 -82.9194 77° East 104 120 1,000  Level Indianapolis Center
Mon 10:05:24 PM 39.8289 -82.8794 77° East 136 157 1,800 840 Climbing Indianapolis Center
Mon 10:06:10 PM 39.8353 -82.8519 73° East 123 142 2,400 988 Climbing Indianapolis Center
Mon 10:06:49 PM 39.8414 -82.8186 77° East 130 150 3,200 984 Climbing Indianapolis Center
Mon 10:07:11 PM 39.8444 -82.8064 72° East 126 145 3,400 984 Climbing Indianapolis Center
Mon 10:07:50 PM 39.8642 -82.7886 35° Northeast 130 150 4,200 984 Climbing Indianapolis Center
Mon 10:08:12 PM 39.8750 -82.7794 33° Northeast 145 167 4,400 985 Climbing Indianapolis Center
Mon 10:08:57 PM 39.9036 -82.7603 27° Northeast 138 159 5,300 984 Climbing Indianapolis Center
Mon 10:09:13 PM 39.9083 -82.7561 34° Northeast 135 155 5,400 833 Climbing Indianapolis Center
Mon 10:09:33 PM 39.9236 -82.7461 27° Northeast 134 154 5,800 885 Climbing Indianapolis Center
Mon 10:10:14 PM 39.9425 -82.7350 24° Northeast 135 155 6,300 885 Climbing Indianapolis Center
Mon 10:10:34 PM 39.9583 -82.7256 25° Northeast 138 159 6,700 689 Climbing Indianapolis Center
Mon 10:11:15 PM 39.9775 -82.7106 31° Northeast 140 161 7,000 295 Climbing Indianapolis Center
Mon 10:11:35 PM 39.9956 -82.7000 24° Northeast 164 189 7,000  Level Indianapolis Center
Mon 10:12:16 PM 40.0200 -82.6842 26° Northeast 168 193 7,000  Level Indianapolis Center
Mon 10:12:35 PM 40.0372 -82.6719 29° Northeast 177 204 7,000  Level Indianapolis Center
Mon 10:13:18 PM 40.0714 -82.6519 24° Northeast 176 203 7,000  Level Indianapolis Center
Mon 10:13:36 PM 40.0850 -82.6444 23° Northeast 177 204 7,000  Level Indianapolis Center
Mon 10:14:19 PM 40.1167 -82.6225 28° Northeast 179 206 7,000  Level Indianapolis Center
Mon 10:15:20 PM 40.1633 -82.5922 26° Northeast 186 214 7,000  Level Indianapolis Center
Mon 10:15:50 PM 40.1856 -82.5792 24° Northeast 192 221 7,000  Level Indianapolis Center
Mon 10:16:21 PM 40.2122 -82.5600 29° Northeast 194 223 7,000  Level Indianapolis Center
Mon 10:16:44 PM 40.2292 -82.5483 28° Northeast 196 226 7,000  Level Indianapolis Center
Mon 10:17:22 PM 40.2586 -82.5303 25° Northeast 194 223 7,000  Level Indianapolis Center
Mon 10:17:45 PM 40.2772 -82.5181 27° Northeast 195 224 7,000  Level Indianapolis Center
Mon 10:18:23 PM 40.3078 -82.4989 26° Northeast 195 224 7,000  Level Indianapolis Center
Mon 10:19:24 PM 40.3558 -82.4647 28° Northeast 195 224 7,000  Level Indianapolis Center
Mon 10:20:25 PM 40.4053 -82.4328 26° Northeast 195 224 7,000  Level Indianapolis Center
Mon 10:21:25 PM 40.4544 -82.3992 27° Northeast 198 228 7,000  Level Indianapolis Center
Mon 10:22:26 PM 40.5039 -82.3694 25° Northeast 194 223 7,000  Level Indianapolis Center
Mon 10:23:27 PM 40.5519 -82.3347 29° Northeast 195 224 7,000 -197 Level Indianapolis Center
Mon 10:24:28 PM 40.6019 -82.3014 27° Northeast 199 229 6,600 -492 Descending Indianapolis Center
Mon 10:25:29 PM 40.6567 -82.2656 26° Northeast 213 245 6,000 -661 Descending Indianapolis Center
Mon 10:26:26 PM 40.7097 -82.2319 26° Northeast 211 243 5,300 -690 Descending Cleveland Center
Mon 10:26:56 PM 40.7372 -82.2136 27° Northeast 212 244 5,000 -198 Descending Cleveland Center
Mon 10:27:57 PM 40.7878 -82.1792 27° Northeast 199 229 5,000  Level Cleveland Center
Mon 10:28:57 PM 40.8339 -82.1500 26° Northeast 189 217 5,000  Level Cleveland Center
Mon 10:29:58 PM 40.8803 -82.1183 27° Northeast 188 216 5,000  Level Cleveland Center
Mon 10:30:59 PM 40.9264 -82.0864 28° Northeast 187 215 5,000  Level Cleveland Center
Mon 10:31:59 PM 40.9747 -82.0572 24° Northeast 188 216 5,000  Level Cleveland Center
Mon 10:33:00 PM 41.0192 -82.0253 28° Northeast 186 214 5,000 -446 Level Cleveland Center
Mon 10:34:00 PM 41.0694 -81.9878 29° Northeast 210 242 4,100 -744 Descending Cleveland Center
Mon 10:35:01 PM 41.1242 -81.9503 27° Northeast 211 243 3,500 -569 Descending Cleveland Center
Mon 10:35:56 PM 41.1622 -81.9097 39° Northeast 208 239 3,000 -261 Descending Cleveland Center
Mon 10:36:56 PM 41.2086 -81.8639 37° Northeast 189 217 3,000  Level Cleveland Center
Mon 10:37:57 PM 41.2506 -81.8286 32° Northeast 186 214 3,000  Level Cleveland Center
Mon 10:38:57 PM 41.2908 -81.7853 39° Northeast 181 208 3,000  Level Cleveland Center
Mon 10:39:58 PM 41.3328 -81.7500 32° Northeast 178 205 3,000  Level Cleveland Center
Mon 10:40:59 PM 41.3747 -81.7147 32° Northeast 174 200 3,000  Level Cleveland Center
Mon 10:41:59 PM 41.4086 -81.6711 44° Northeast 174 200 3,000  Level Cleveland Center
Mon 10:43:00 PM 41.4425 -81.6247 46° Northeast 167 192 3,000  Level Cleveland Center
Mon 10:44:00 PM 41.4783 -81.5864 39° Northeast 164 189 3,000  Level Cleveland Center
Mon 10:45:01 PM 41.5181 -81.5703 17° North 158 182 3,000 -541 Level Cleveland Center
Mon 10:46:02 PM 41.5572 -81.5986 332° Northwest 187 215 1,900 -1,082 Descending Cleveland Center

Login

Don't have an account? Register now (free) for customized features, flight alerts, and more!